Terminal Aerodrome Forecast
Issued by NWS

Home | Current Version | Previous Version | Text Only | Print | Product List | Glossary On
Versions: 1 2 3 4 5 6 7 8 9 10 11 12 13 14 15 16 17 18 19 20 21 22 23 24 25 26 27 28 29 30 31 32 33 34 35 36 37 38
000
FTAK31 PANC 310540
TAFAEN
TAF
PAEN 310540Z 3106/0106 34010KT P6SM BKN080
      TEMPO 3106/3109 03008KT
     FM310900 33008KT P6SM SCT120
     FM311600 02018G28KT P6SM SCT200=

USA.gov is the U.S. government's official web portal to all federal, state and local government web resources and services.